SUCCESS DAM (SCC)

Elevation: 692' · TULE R basin · Operator: US Army Corps of Engineers

Provisional data, subject to change.
Query executed Wednesday at 17:25:48   clock

Select a sensor type for a plot of data.
Note: Reservoir Flows are daily averages.

Earlier

Date RES ELE    STORAGE    RES CHG    TOC STO    ABV TOC    OUTFLOW    INFLOW    FNF    PPT INC    PPTINC4    TEMP MN    TEMP MX    WINDLEN    EVP PAN   
 FEET   AF   AF   AF   AF   CFS   CFS   CFS   INCHES   INCHES   DEG F   DEG F   MILES   INCHES  
09/23/2014 580.06 4258 -25 59603 -55345 13 2 2 0.00 0.00 19 35 56 0.21
09/24/2014 579.93 4221 -37 58616 -54395 18 1 1 0.00 0.00 18 35 54 0.20
09/25/2014 579.70 4157 -64 57629 -53472 31 1 1 0.00 0.00 16 31 77 0.20
09/26/2014 579.47 4093 -64 56642 -52549 32 1 1 0.00 0.00 15 27 73 0.18
09/27/2014 579.23 4027 -66 55655 -51628 31 -1 -1 0.00 0.00 13 24 63 0.13
09/28/2014 579.01 3968 -59 54668 -50700 30 1 1 0.00 0.00 16 27 55 0.16
09/29/2014 578.78 3906 -62 53682 -49776 32 2 2 0.00 0.00 12 28 56 0.17
09/30/2014 578.57 3850 -56 52695 -48845 30 4 4 0.00 0.00 15 30 0 0.18
10/01/2014 578.35 3792 -58 51708 -47916 29 2 2 0.00 0.00 13 31 48 0.17
10/02/2014 578.07 3719 -73 50721 -47002 31 -4 -4 0.00 0.00 16 34 54 0.19
10/03/2014 577.87 3667 -52 49734 -46067 29 4 4 0.00 0.00 15 35 58 0.19
10/04/2014 577.77 3642 -25 48748 -45106 14 3 3 0.00 0.00 16 33 57 0.16
10/05/2014 577.73 3631 -11 47761 -44130 5 2 2 0.00 0.00 17 37 54 0.19
10/06/2014 577.68 3619 -12 46774 -43155 8 3 3 0.00 0.00 18 37 63 0.20
10/07/2014 577.57 3591 -28 45787 -42196 9 -3 -3 0.00 0.00 18 35 58 0.19
10/08/2014 577.50 3573 -18 44800 -41227 10 2 2 0.00 0.00 17 34 64 0.18
10/09/2014 577.42 3553 -20 43814 -40261 11 2 2 0.00 0.00 16 34 63 0.18
10/10/2014 577.35 3535 -18 42827 -39292 10 2 2 0.00 0.00 14 31 60 0.17
10/11/2014 577.30 3523 -12 41840 -38317 6 1 1 0.00 0.00 15 32 62 0.17
10/12/2014 577.26 3513 -10 40853 -37340 6 3 3 0.00 0.00 16 31 62 0.17
10/13/2014 577.17 3490 -23 39867 -36377 11 1 1 0.00 0.00 15 35 59 0.18
10/14/2014 577.07 3465 -25 38880 -35415 12 1 1 0.00 0.00 16 35 62 0.18
10/15/2014 576.97 3441 -24 37893 -37889559 12 2 2 0.00 0.00 16 26 46 0.12
10/16/2014 576.88 3418 -23 36906 -33488 11 0 0 0.00 0.00 13 26 51 0.13
10/17/2014 576.82 3404 -14 35919 -32515 7 2 2 0.00 0.00 12 26 55 0.12
10/18/2014 576.77 3391 -13 34933 -31542 4 -1 -1 0.00 0.00 14 27 58 0.14
10/19/2014 576.74 3384 -7 33946 -30562 4 1 1 0.00 0.00 13 29 52 0.14
10/20/2014 576.66 3365 -19 32959 -29594 9 1 1 0.00 0.00 14 28 61 0.13
10/21/2014 576.57 3343 -22 31972 -28629 10 0 0 0.00 0.00 11 23 49 0.10
10/22/2014 -- -- -- -- -- -- -- -- -- 0.00 -- -- -- --

Later | Latest

Warning! This data is preliminary and subject to revision.

Show SCC Map | Plot SCC Data | 1 Month SCC Data | Real-Time SCC Data | SCC Info